createdAt,value
2023-05-15T00:01:51.978Z,16.67
2023-05-15T00:04:20.253Z,16.92
2023-05-15T00:06:49.042Z,16.40
2023-05-15T00:09:17.464Z,19.40
2023-05-15T00:11:45.604Z,18.08
2023-05-15T00:14:13.941Z,18.48
2023-05-15T00:16:42.462Z,19.02
2023-05-15T00:19:10.966Z,17.85
2023-05-15T00:21:39.225Z,18.83
2023-05-15T00:24:07.709Z,18.35
2023-05-15T00:26:37.059Z,20.25
2023-05-15T00:29:04.478Z,19.05
2023-05-15T00:31:33.748Z,21.13
2023-05-15T00:34:01.456Z,18.02
2023-05-15T00:36:29.809Z,20.77
2023-05-15T00:38:58.663Z,17.50
2023-05-15T00:41:28.999Z,18.42
2023-05-15T00:44:00.888Z,19.77
2023-05-15T00:46:33.391Z,17.98
2023-05-15T00:49:04.087Z,21.88
2023-05-15T00:51:33.727Z,17.98
2023-05-15T00:54:05.094Z,18.38
2023-05-15T00:56:35.830Z,23.10
2023-05-15T00:59:07.962Z,18.90
2023-05-15T01:01:38.236Z,23.27
2023-05-15T01:04:08.252Z,20.52
2023-05-15T01:06:38.526Z,19.90
2023-05-15T01:09:11.150Z,18.10
2023-05-15T01:11:43.612Z,17.33
2023-05-15T01:14:13.142Z,17.13
2023-05-15T01:16:42.640Z,21.02
2023-05-15T01:19:13.102Z,18.90
2023-05-15T01:22:04.229Z,21.23
2023-05-15T01:25:08.775Z,22.13
2023-05-15T01:27:51.750Z,18.45
2023-05-15T01:30:31.193Z,19.25
2023-05-15T01:33:18.674Z,19.15
2023-05-15T01:36:33.863Z,18.35
2023-05-15T01:39:07.894Z,19.60
2023-05-15T01:42:03.120Z,18.98
2023-05-15T01:44:41.442Z,27.58
2023-05-15T01:47:20.082Z,21.42
2023-05-15T01:49:57.729Z,20.02
2023-05-15T01:52:38.771Z,20.35
2023-05-15T01:55:11.164Z,22.08
2023-05-15T01:57:43.544Z,21.98
2023-05-15T02:00:16.088Z,27.08
2023-05-15T02:02:50.195Z,19.58
2023-05-15T02:05:23.287Z,22.40
2023-05-15T02:07:55.684Z,19.70
2023-05-15T02:10:27.048Z,20.00
2023-05-15T02:12:57.937Z,21.52
2023-05-15T02:15:30.341Z,22.65
2023-05-15T02:18:00.891Z,33.13
2023-05-15T02:20:31.083Z,24.38
2023-05-15T02:23:01.427Z,20.50
2023-05-15T02:26:25.965Z,23.08
2023-05-15T02:29:23.666Z,24.83
2023-05-15T02:32:26.852Z,26.27
2023-05-15T02:35:16.670Z,23.13
2023-05-15T02:37:55.783Z,21.80
2023-05-15T02:43:00.133Z,23.98
2023-05-15T02:45:29.409Z,27.85
2023-05-15T02:48:01.678Z,23.92
2023-05-15T02:50:31.472Z,25.70
2023-05-15T02:53:10.057Z,25.10
2023-05-15T02:55:40.494Z,24.90
2023-05-15T02:58:10.931Z,31.55
2023-05-15T03:00:41.028Z,25.85
2023-05-15T03:03:11.021Z,28.02
2023-05-15T03:05:40.898Z,26.50
2023-05-15T03:08:10.803Z,25.15
2023-05-15T03:10:40.915Z,27.42
2023-05-15T03:13:11.187Z,25.38
2023-05-15T03:15:43.616Z,22.88
2023-05-15T03:18:11.533Z,27.23
2023-05-15T03:20:41.480Z,26.75
2023-05-15T03:23:11.451Z,30.05
2023-05-15T03:25:41.518Z,27.02
2023-05-15T03:28:11.887Z,25.88
2023-05-15T03:30:45.706Z,28.63
2023-05-15T03:33:15.713Z,26.23
2023-05-15T03:35:46.032Z,29.23
2023-05-15T03:38:15.863Z,25.52
2023-05-15T03:40:46.136Z,29.52
2023-05-15T03:43:16.363Z,25.95
2023-05-15T03:45:46.455Z,25.25
2023-05-15T03:48:16.366Z,27.90
2023-05-15T03:50:47.080Z,24.40
2023-05-15T03:53:17.371Z,23.52
2023-05-15T03:55:47.486Z,27.27
2023-05-15T03:58:17.237Z,24.25
2023-05-15T04:00:47.216Z,24.67
2023-05-15T04:03:15.799Z,23.88
2023-05-15T04:05:44.428Z,23.95
2023-05-15T04:08:12.685Z,23.98
2023-05-15T04:10:41.233Z,24.23
2023-05-15T04:13:10.066Z,25.42
2023-05-15T04:15:38.923Z,27.90
2023-05-15T04:18:06.644Z,25.33
2023-05-15T04:20:35.794Z,26.40
2023-05-15T04:23:05.972Z,30.35
2023-05-15T04:25:33.385Z,33.47
2023-05-15T04:28:01.961Z,32.17
2023-05-15T04:30:30.227Z,29.63
2023-05-15T04:32:58.977Z,28.67
2023-05-15T04:35:27.811Z,34.55
2023-05-15T04:37:56.185Z,25.83
2023-05-15T04:40:24.575Z,28.52
2023-05-15T04:42:53.107Z,28.20
2023-05-15T04:45:21.766Z,30.15
2023-05-15T04:47:49.997Z,27.92
2023-05-15T04:50:18.392Z,27.67
2023-05-15T04:52:47.312Z,28.98
2023-05-15T04:55:15.832Z,30.02
2023-05-15T04:57:46.559Z,26.13
2023-05-15T05:00:16.425Z,24.60
2023-05-15T05:02:44.392Z,26.05
2023-05-15T05:05:14.882Z,28.30
2023-05-15T05:07:46.573Z,28.55
2023-05-15T05:10:17.047Z,27.17
2023-05-15T05:12:46.886Z,25.88
2023-05-15T05:15:16.815Z,26.70
2023-05-15T05:17:47.261Z,31.90
2023-05-15T05:20:17.344Z,31.20
2023-05-15T05:22:47.054Z,38.80
2023-05-15T05:25:15.454Z,34.30
2023-05-15T05:27:43.949Z,35.92
2023-05-15T05:30:13.164Z,34.83
2023-05-15T05:32:40.917Z,38.25
2023-05-15T05:35:09.893Z,43.78
2023-05-15T05:37:40.812Z,38.17
2023-05-15T05:40:11.010Z,36.85
2023-05-15T05:42:38.460Z,42.58
2023-05-15T05:45:08.207Z,33.70
2023-05-15T05:47:38.328Z,36.92
2023-05-15T05:50:08.464Z,32.97
2023-05-15T05:52:38.721Z,32.10
2023-05-15T05:55:10.384Z,35.00
2023-05-15T05:57:40.881Z,36.13
2023-05-15T06:00:12.967Z,36.63
2023-05-15T06:02:43.513Z,37.03
2023-05-15T06:05:14.851Z,32.83
2023-05-15T06:07:45.141Z,45.47
2023-05-15T06:10:13.202Z,33.15
2023-05-15T06:12:40.992Z,35.50
2023-05-15T06:15:09.795Z,28.58
2023-05-15T06:17:38.535Z,36.30
2023-05-15T06:20:08.885Z,31.77
2023-05-15T06:22:38.898Z,37.35
2023-05-15T06:25:13.934Z,29.65
2023-05-15T06:27:44.200Z,33.63
2023-05-15T06:30:15.062Z,35.38
2023-05-15T06:32:46.003Z,32.97
2023-05-15T06:35:16.315Z,36.60
2023-05-15T06:37:50.616Z,38.47
2023-05-15T06:40:21.656Z,29.42
2023-05-15T06:42:51.835Z,36.45
2023-05-15T06:45:22.055Z,29.80
2023-05-15T06:47:52.259Z,32.03
2023-05-15T06:50:22.602Z,33.92
2023-05-15T06:52:52.791Z,33.40
2023-05-15T06:55:23.163Z,36.58
2023-05-15T06:57:53.513Z,37.05
2023-05-15T07:00:23.753Z,32.78
2023-05-15T07:02:54.009Z,29.08
2023-05-15T07:05:24.325Z,32.15
2023-05-15T07:07:55.018Z,31.23
2023-05-15T07:10:25.535Z,33.70
2023-05-15T07:12:56.051Z,34.35
2023-05-15T07:15:26.553Z,39.35
2023-05-15T07:17:56.911Z,33.60
2023-05-15T07:20:30.298Z,29.90
2023-05-15T07:23:03.769Z,32.50
2023-05-15T07:25:33.996Z,37.00
2023-05-15T07:28:04.710Z,28.75
2023-05-15T07:30:34.968Z,28.27
2023-05-15T07:33:05.255Z,25.88
2023-05-15T07:35:35.672Z,24.83
2023-05-15T07:38:06.010Z,22.98
2023-05-15T07:40:36.448Z,27.73
2023-05-15T07:43:06.901Z,25.33
2023-05-15T07:45:37.653Z,24.23
2023-05-15T07:48:16.670Z,26.23
2023-05-15T07:50:48.527Z,22.45
2023-05-15T07:53:18.850Z,32.95
2023-05-15T07:55:49.208Z,21.73
2023-05-15T07:58:19.548Z,22.13
2023-05-15T08:00:49.910Z,24.98
2023-05-15T08:03:20.190Z,20.35
2023-05-15T08:05:48.599Z,27.45
2023-05-15T08:08:17.176Z,18.80
2023-05-15T08:10:46.063Z,22.88
2023-05-15T08:13:14.125Z,18.67
2023-05-15T08:15:43.588Z,17.52
2023-05-15T08:18:11.847Z,20.25
2023-05-15T08:20:39.639Z,17.77
2023-05-15T08:23:08.958Z,19.73
2023-05-15T08:25:36.468Z,22.98
2023-05-15T08:28:06.052Z,21.88
2023-05-15T08:30:33.446Z,14.18
2023-05-15T08:33:01.888Z,16.10
2023-05-15T08:35:30.328Z,16.45
2023-05-15T08:37:59.847Z,15.05
2023-05-15T08:43:17.148Z,16.25
2023-05-15T08:45:45.905Z,19.00
2023-05-15T08:48:21.902Z,19.63
2023-05-15T08:50:51.414Z,12.82
2023-05-15T08:53:21.375Z,11.27
2023-05-15T08:55:52.350Z,14.32
2023-05-15T08:58:26.153Z,12.35
2023-05-15T09:00:59.249Z,13.55
2023-05-15T09:03:29.705Z,10.10
2023-05-15T09:06:02.040Z,10.27
2023-05-15T09:08:34.561Z,15.30
2023-05-15T09:11:08.121Z,13.25
2023-05-15T09:13:38.302Z,9.70
2023-05-15T09:16:08.547Z,9.02
2023-05-15T09:18:41.119Z,11.88
2023-05-15T09:21:33.987Z,13.18
2023-05-15T09:24:19.288Z,10.18
2023-05-15T09:27:05.244Z,12.05
2023-05-15T09:29:39.282Z,15.13
2023-05-15T09:32:15.823Z,12.13
2023-05-15T09:34:46.533Z,11.93
2023-05-15T09:37:34.395Z,13.10
2023-05-15T09:40:11.454Z,13.32
2023-05-15T09:42:39.342Z,10.93
2023-05-15T09:45:18.757Z,11.23
2023-05-15T09:47:47.904Z,12.23
2023-05-15T09:50:23.827Z,13.57
2023-05-15T09:52:54.271Z,11.52
2023-05-15T09:55:24.837Z,15.20
2023-05-15T09:58:16.701Z,15.55
2023-05-15T10:00:49.621Z,14.10
2023-05-15T10:03:21.126Z,10.73
2023-05-15T10:06:01.430Z,9.43
2023-05-15T10:08:31.747Z,13.45
2023-05-15T10:11:04.247Z,13.13
2023-05-15T10:13:37.436Z,14.77
2023-05-15T10:16:08.610Z,12.43
2023-05-15T10:18:42.106Z,11.82
2023-05-15T10:21:18.442Z,18.80
2023-05-15T10:23:51.198Z,11.45
2023-05-15T10:26:34.140Z,9.93
2023-05-15T10:29:17.089Z,9.55
2023-05-15T10:31:50.652Z,13.75
2023-05-15T10:34:22.030Z,10.90
2023-05-15T10:36:52.769Z,7.97
2023-05-15T10:39:24.490Z,13.15
2023-05-15T10:41:55.998Z,12.25
2023-05-15T10:44:24.064Z,13.38
2023-05-15T10:46:56.057Z,11.75
2023-05-15T10:49:26.057Z,10.13
2023-05-15T10:51:56.290Z,12.73
2023-05-15T10:54:24.174Z,10.07
2023-05-15T10:56:57.353Z,9.85
2023-05-15T10:59:35.057Z,10.25
2023-05-15T11:02:39.560Z,13.55
2023-05-15T11:05:11.922Z,11.25
2023-05-15T11:07:42.430Z,8.35
2023-05-15T11:10:31.008Z,15.48
2023-05-15T11:13:03.206Z,11.38
2023-05-15T11:15:45.795Z,11.60
2023-05-15T11:18:15.916Z,9.02
2023-05-15T11:20:52.159Z,12.43
2023-05-15T11:23:23.892Z,8.63
2023-05-15T11:25:57.709Z,7.97
2023-05-15T11:28:31.288Z,7.65
2023-05-15T11:31:07.362Z,10.32
2023-05-15T11:33:40.802Z,7.80
2023-05-15T11:36:16.016Z,8.65
2023-05-15T11:38:51.365Z,7.65
2023-05-15T11:41:22.212Z,6.90
2023-05-15T11:43:51.178Z,8.98
2023-05-15T11:46:18.644Z,8.45
2023-05-15T11:48:48.227Z,10.13
2023-05-15T11:51:27.653Z,11.88
2023-05-15T11:53:58.314Z,8.65
2023-05-15T11:56:29.121Z,7.20
2023-05-15T11:59:03.893Z,7.35
2023-05-15T12:01:47.868Z,5.43
2023-05-15T12:04:19.839Z,8.75
2023-05-15T12:06:50.174Z,8.25
2023-05-15T12:09:22.729Z,7.95
2023-05-15T12:11:56.952Z,7.97
2023-05-15T12:14:31.965Z,7.30
2023-05-15T12:17:06.134Z,7.22
2023-05-15T12:19:38.902Z,6.30
2023-05-15T12:22:08.676Z,6.55
2023-05-15T12:24:39.982Z,6.40
2023-05-15T12:27:10.400Z,7.00
2023-05-15T12:29:43.042Z,4.15
2023-05-15T12:32:12.462Z,4.53
2023-05-15T12:34:42.390Z,5.10
2023-05-15T12:37:15.982Z,7.05
2023-05-15T12:39:54.734Z,4.03
2023-05-15T12:44:57.340Z,3.67
2023-05-15T12:47:28.529Z,5.60
2023-05-15T12:49:59.075Z,2.85
2023-05-15T12:52:29.657Z,2.60
2023-05-15T12:55:02.886Z,3.70
2023-05-15T12:57:31.671Z,3.47
2023-05-15T13:00:01.589Z,5.53
2023-05-15T13:02:31.611Z,3.60
2023-05-15T13:05:05.155Z,4.07
2023-05-15T13:07:34.662Z,5.10
2023-05-15T13:10:09.715Z,4.32
2023-05-15T13:12:45.002Z,3.53
2023-05-15T13:15:33.500Z,6.30
2023-05-15T13:18:07.371Z,3.95
2023-05-15T13:20:48.587Z,3.92
2023-05-15T13:23:24.267Z,5.00
2023-05-15T13:25:54.463Z,4.50
2023-05-15T13:28:24.614Z,5.57
2023-05-15T13:30:54.915Z,7.65
2023-05-15T13:33:25.633Z,8.32
2023-05-15T13:35:57.505Z,3.33
2023-05-15T13:38:27.651Z,4.63
2023-05-15T13:40:58.640Z,4.68
2023-05-15T13:43:28.901Z,4.38
2023-05-15T13:45:59.250Z,3.80
2023-05-15T13:48:29.443Z,4.85
2023-05-15T13:50:59.619Z,4.57
2023-05-15T13:56:06.093Z,5.35
2023-05-15T13:58:36.563Z,4.63
2023-05-15T14:01:07.492Z,17.35
2023-05-15T14:03:37.879Z,9.68
2023-05-15T14:06:09.372Z,5.93
2023-05-15T14:08:39.676Z,9.95
2023-05-15T14:11:09.842Z,6.65
2023-05-15T14:13:40.336Z,8.55
2023-05-15T14:16:10.476Z,3.78
2023-05-15T14:18:41.080Z,3.85
2023-05-15T14:21:11.387Z,4.85
2023-05-15T14:23:41.572Z,3.83
2023-05-15T14:26:11.835Z,4.18
2023-05-15T14:28:42.058Z,5.90
2023-05-15T14:31:10.923Z,5.07
2023-05-15T14:33:41.347Z,6.50
2023-05-15T14:36:11.288Z,5.78
2023-05-15T14:38:39.712Z,4.22
2023-05-15T14:41:08.290Z,4.60
2023-05-15T14:43:36.722Z,5.60
2023-05-15T14:46:05.540Z,7.65
2023-05-15T14:48:34.182Z,5.80
2023-05-15T14:51:02.728Z,3.92
2023-05-15T14:53:31.074Z,4.53
2023-05-15T14:56:01.307Z,4.40
2023-05-15T14:58:32.589Z,4.47
2023-05-15T15:01:03.850Z,4.03
2023-05-15T15:03:34.437Z,3.85
2023-05-15T15:06:05.102Z,3.45
2023-05-15T15:08:35.304Z,3.90
2023-05-15T15:11:06.538Z,3.42
2023-05-15T15:13:36.740Z,3.63
2023-05-15T15:16:08.332Z,3.28
2023-05-15T15:18:38.615Z,3.90
2023-05-15T15:21:09.449Z,3.30
2023-05-15T15:23:39.562Z,2.83
2023-05-15T15:26:09.730Z,2.85
2023-05-15T15:28:40.077Z,3.38
2023-05-15T15:31:11.225Z,3.92
2023-05-15T15:33:41.636Z,4.00
2023-05-15T15:36:11.924Z,3.05
2023-05-15T15:38:43.948Z,3.38
2023-05-15T15:41:14.547Z,5.10
2023-05-15T15:43:44.704Z,3.67
2023-05-15T15:46:15.137Z,3.67
2023-05-15T15:48:45.340Z,4.90
2023-05-15T15:51:18.587Z,3.70
2023-05-15T15:53:48.776Z,3.17
2023-05-15T15:56:19.070Z,3.10
2023-05-15T15:58:49.436Z,4.50
2023-05-15T16:01:17.977Z,3.63
2023-05-15T16:03:46.297Z,5.97
2023-05-15T16:06:14.595Z,4.22
2023-05-15T16:08:43.082Z,4.00
2023-05-15T16:11:11.722Z,3.42
2023-05-15T16:13:41.984Z,3.60
2023-05-15T16:16:10.699Z,3.92
2023-05-15T16:18:40.935Z,4.93
2023-05-15T16:21:09.367Z,3.80
2023-05-15T16:23:40.509Z,6.03
2023-05-15T16:26:11.438Z,3.47
2023-05-15T16:28:41.595Z,3.38
2023-05-15T16:31:11.950Z,3.47
2023-05-15T16:33:42.103Z,4.00
2023-05-15T16:36:12.243Z,3.75
2023-05-15T16:38:42.797Z,3.95
2023-05-15T16:41:13.066Z,5.60
2023-05-15T16:43:44.102Z,3.50
2023-05-15T16:46:14.493Z,6.07
2023-05-15T16:48:44.696Z,4.28
2023-05-15T16:51:15.048Z,5.80
2023-05-15T16:53:45.481Z,4.53
2023-05-15T16:56:15.694Z,6.40
2023-05-15T16:58:46.054Z,4.68
2023-05-15T17:01:16.522Z,6.72
2023-05-15T17:03:47.005Z,4.97
2023-05-15T17:06:17.358Z,3.80
2023-05-15T17:08:47.554Z,4.28
2023-05-15T17:11:17.723Z,5.15
2023-05-15T17:13:47.921Z,4.00
2023-05-15T17:16:18.097Z,4.40
2023-05-15T17:18:48.322Z,5.82
2023-05-15T17:21:18.596Z,5.90
2023-05-15T17:23:53.252Z,5.70
2023-05-15T17:26:23.980Z,6.03
2023-05-15T17:28:54.183Z,5.95
2023-05-15T17:31:24.513Z,5.55
2023-05-15T17:33:54.779Z,9.07
2023-05-15T17:36:24.953Z,5.65
2023-05-15T17:38:55.181Z,5.38
2023-05-15T17:41:25.987Z,6.20
2023-05-15T17:43:56.265Z,6.05
2023-05-15T17:46:26.475Z,5.30
2023-05-15T17:48:56.726Z,8.15
2023-05-15T17:51:27.068Z,5.88
2023-05-15T17:53:57.172Z,5.93
2023-05-15T17:56:28.141Z,8.30
2023-05-15T17:58:58.249Z,6.72
2023-05-15T18:01:28.614Z,7.22
2023-05-15T18:03:58.931Z,6.32
2023-05-15T18:06:29.311Z,9.35
2023-05-15T18:09:00.015Z,6.93
2023-05-15T18:11:28.100Z,6.57
2023-05-15T18:13:56.787Z,6.55
2023-05-15T18:16:25.292Z,7.03
2023-05-15T18:18:53.888Z,6.22
2023-05-15T18:21:22.206Z,12.60
2023-05-15T18:23:50.692Z,7.70
2023-05-15T18:26:19.178Z,7.07
2023-05-15T18:28:48.077Z,7.60
2023-05-15T18:31:16.629Z,7.90
2023-05-15T18:33:45.213Z,7.57
2023-05-15T18:36:13.410Z,7.05
2023-05-15T18:38:41.951Z,7.05
2023-05-15T18:41:10.234Z,7.38
2023-05-15T18:43:38.845Z,6.68
2023-05-15T18:46:07.382Z,6.95
2023-05-15T18:48:35.979Z,8.77
2023-05-15T18:51:04.664Z,7.88
2023-05-15T18:53:32.878Z,8.00
2023-05-15T18:56:01.203Z,7.75
2023-05-15T18:58:29.660Z,7.65
2023-05-15T19:00:58.194Z,8.07
2023-05-15T19:03:26.898Z,7.50
2023-05-15T19:05:57.323Z,11.35
2023-05-15T19:08:26.833Z,8.90
2023-05-15T19:10:55.279Z,11.18
2023-05-15T19:13:23.755Z,8.35
2023-05-15T19:15:53.927Z,8.90
2023-05-15T19:18:24.097Z,9.38
2023-05-15T19:20:54.482Z,8.23
2023-05-15T19:23:25.161Z,9.05
2023-05-15T19:25:55.343Z,8.10
2023-05-15T19:28:25.598Z,8.52
2023-05-15T19:30:55.908Z,10.60
2023-05-15T19:33:26.214Z,8.15
2023-05-15T19:35:56.432Z,8.77
2023-05-15T19:38:26.696Z,9.30
2023-05-15T19:40:57.010Z,10.23
2023-05-15T19:43:27.716Z,10.95
2023-05-15T19:45:58.004Z,9.73
2023-05-15T19:48:28.924Z,10.48
2023-05-15T19:50:59.110Z,11.63
2023-05-15T19:53:29.339Z,10.02
2023-05-15T19:55:59.494Z,13.55
2023-05-15T19:58:30.334Z,10.80
2023-05-15T20:01:00.483Z,12.00
2023-05-15T20:03:34.002Z,11.93
2023-05-15T20:06:04.372Z,11.48
2023-05-15T20:08:34.551Z,12.43
2023-05-15T20:11:05.012Z,14.02
2023-05-15T20:13:35.462Z,19.13
2023-05-15T20:16:10.872Z,12.50
2023-05-15T20:18:41.856Z,15.80
2023-05-15T20:21:12.153Z,12.25
2023-05-15T20:23:42.290Z,13.45
2023-05-15T20:26:12.456Z,12.05
2023-05-15T20:28:44.418Z,12.85
2023-05-15T20:31:15.693Z,12.55
2023-05-15T20:33:46.280Z,13.23
2023-05-15T20:36:16.886Z,14.07
2023-05-15T20:38:47.774Z,15.48
2023-05-15T20:41:18.327Z,13.55
2023-05-15T20:43:48.464Z,12.48
2023-05-15T20:46:18.828Z,13.05
2023-05-15T20:48:49.239Z,12.68
2023-05-15T20:51:17.675Z,11.85
2023-05-15T20:53:45.998Z,12.05
2023-05-15T20:56:14.314Z,12.65
2023-05-15T20:58:44.480Z,12.48
2023-05-15T21:01:15.562Z,12.02
2023-05-15T21:03:46.066Z,12.05
2023-05-15T21:06:16.379Z,11.93
2023-05-15T21:08:46.549Z,12.32
2023-05-15T21:11:16.775Z,13.43
2023-05-15T21:13:46.957Z,10.57
2023-05-15T21:16:17.133Z,11.55
2023-05-15T21:18:49.117Z,11.50
2023-05-15T21:21:19.732Z,12.75
2023-05-15T21:23:50.181Z,12.45
2023-05-15T21:26:20.359Z,11.65
2023-05-15T21:28:50.704Z,12.55
2023-05-15T21:31:20.937Z,12.52
2023-05-15T21:33:51.129Z,12.73
2023-05-15T21:36:22.067Z,13.68
2023-05-15T21:38:52.277Z,17.08
2023-05-15T21:41:22.437Z,31.15
2023-05-15T21:43:52.827Z,12.18
2023-05-15T21:46:23.961Z,13.32
2023-05-15T21:48:54.255Z,10.13
2023-05-15T21:51:24.603Z,11.70
2023-05-15T21:53:54.950Z,11.07
2023-05-15T21:56:25.252Z,13.13
2023-05-15T21:58:55.628Z,11.32
2023-05-15T22:01:25.982Z,13.10
2023-05-15T22:03:56.746Z,13.00
2023-05-15T22:06:27.113Z,11.10
2023-05-15T22:08:58.010Z,12.63
2023-05-15T22:11:28.140Z,13.10
2023-05-15T22:13:58.460Z,19.60
2023-05-15T22:16:28.819Z,12.15
2023-05-15T22:18:57.113Z,11.50
2023-05-15T22:21:25.650Z,13.55
2023-05-15T22:23:54.105Z,11.73
2023-05-15T22:26:23.734Z,12.15
2023-05-15T22:28:57.346Z,13.98
2023-05-15T22:31:28.727Z,13.32
2023-05-15T22:33:59.088Z,16.80
2023-05-15T22:36:31.064Z,11.43
2023-05-15T22:39:01.688Z,12.80
2023-05-15T22:41:32.465Z,11.73
2023-05-15T22:44:03.613Z,13.40
2023-05-15T22:46:33.980Z,14.68
2023-05-15T22:49:04.631Z,12.35
2023-05-15T22:51:35.103Z,13.65
2023-05-15T22:54:05.410Z,12.13
2023-05-15T22:56:35.673Z,13.75
2023-05-15T22:59:05.969Z,15.00
2023-05-15T23:01:36.139Z,15.98
2023-05-15T23:04:07.684Z,13.15
2023-05-15T23:06:38.555Z,23.60
2023-05-15T23:09:09.296Z,16.05
2023-05-15T23:11:39.584Z,14.95
2023-05-15T23:14:10.218Z,16.98
2023-05-15T23:16:40.597Z,14.13
2023-05-15T23:19:10.995Z,15.07
2023-05-15T23:21:41.275Z,14.45
2023-05-15T23:24:11.537Z,17.83
2023-05-15T23:26:41.724Z,17.30
2023-05-15T23:29:12.550Z,17.05
2023-05-15T23:31:45.749Z,18.40
2023-05-15T23:34:16.309Z,14.93
2023-05-15T23:36:46.554Z,18.60
2023-05-15T23:39:16.894Z,14.50
2023-05-15T23:41:47.090Z,16.73
2023-05-15T23:44:17.366Z,14.82
2023-05-15T23:46:47.671Z,14.02
2023-05-15T23:49:18.118Z,16.35
2023-05-15T23:51:48.324Z,29.10
2023-05-15T23:54:18.548Z,18.58
2023-05-15T23:56:48.751Z,17.00
2023-05-15T23:59:19.187Z,16.58
